Greenwood, New York
Current Conditions -  °F | °C
As of 3:56 AM on Friday 24 Oct 2014 (Local Time) from KELZ Reporting Station
Overcast Overcast  
Wind Chill: 39°   Ceiling: 3000
Heat Index: 45°   Visibility: 10mi
Dew Point: 38°   Wind: 14mph
Humidity: 76%   Direction: 290°WNW
Pressure: 29.99"   Gusts: NA
Location:  42.13°N, 77.65°W
Report Text: KELZ 240756Z AUTO 29012KT 10SM FEW021 OVC030 07/03 A2999 RMK AO2 SLP161 T00720033
Loading
Personal Weather Stations






























Interactive Weather Map
Tropical Storm Tracking
New forecast layout! Learn more

10-Day Weather Forecast

Advertisements
Track Severe Weather on mobile